createdAt,value
2022-09-27T00:01:52.932Z,0.85
2022-09-27T00:04:45.872Z,1.00
2022-09-27T00:07:40.225Z,0.90
2022-09-27T00:10:33.102Z,1.02
2022-09-27T00:13:25.999Z,0.73
2022-09-27T00:16:18.950Z,0.70
2022-09-27T00:19:15.182Z,0.77
2022-09-27T00:22:09.211Z,0.70
2022-09-27T00:25:05.655Z,0.70
2022-09-27T00:27:59.044Z,0.90
2022-09-27T00:30:52.314Z,0.70
2022-09-27T00:33:46.408Z,0.75
2022-09-27T00:36:40.734Z,0.70
2022-09-27T00:39:34.841Z,0.80
2022-09-27T00:42:29.413Z,0.90
2022-09-27T00:45:23.624Z,0.90
2022-09-27T00:48:21.168Z,0.77
2022-09-27T00:51:14.000Z,0.73
2022-09-27T00:54:11.023Z,0.80
2022-09-27T00:57:05.927Z,0.60
2022-09-27T01:00:05.673Z,0.82
2022-09-27T01:02:59.526Z,1.13
2022-09-27T01:05:54.357Z,0.70
2022-09-27T01:08:47.889Z,0.70
2022-09-27T01:11:45.407Z,0.65
2022-09-27T01:14:47.329Z,0.60
2022-09-27T01:17:53.415Z,0.82
2022-09-27T01:21:09.752Z,0.60
2022-09-27T01:24:14.856Z,0.80
2022-09-27T01:27:44.489Z,0.70
2022-09-27T01:30:46.901Z,0.60
2022-09-27T01:33:46.247Z,0.65
2022-09-27T01:36:47.951Z,0.65
2022-09-27T01:39:50.128Z,0.60
2022-09-27T01:42:50.333Z,0.80
2022-09-27T01:45:50.260Z,0.65
2022-09-27T01:48:46.714Z,0.82
2022-09-27T01:51:45.120Z,0.82
2022-09-27T01:54:44.337Z,0.68
2022-09-27T01:57:42.254Z,0.70
2022-09-27T02:00:36.896Z,0.60
2022-09-27T02:03:35.980Z,0.50
2022-09-27T02:06:35.884Z,0.57
2022-09-27T02:09:34.219Z,0.60
2022-09-27T02:12:32.123Z,0.80
2022-09-27T02:15:27.827Z,0.68
2022-09-27T02:18:29.567Z,0.50
2022-09-27T02:21:31.845Z,0.45
2022-09-27T02:24:34.682Z,0.70
2022-09-27T02:27:31.385Z,0.40
2022-09-27T02:30:24.962Z,0.75
2022-09-27T02:33:20.513Z,0.63
2022-09-27T02:36:15.112Z,0.50
2022-09-27T02:39:10.546Z,0.70
2022-09-27T02:42:05.730Z,0.73
2022-09-27T02:44:59.597Z,0.80
2022-09-27T02:48:16.754Z,0.65
2022-09-27T02:51:22.748Z,0.50
2022-09-27T02:54:27.551Z,0.60
2022-09-27T02:57:33.275Z,0.63
2022-09-27T03:00:31.343Z,0.60
2022-09-27T03:03:30.820Z,0.60
2022-09-27T03:06:25.773Z,0.55
2022-09-27T03:09:21.713Z,0.50
2022-09-27T03:12:15.365Z,0.47
2022-09-27T03:15:10.597Z,0.50
2022-09-27T03:18:04.376Z,0.50
2022-09-27T03:20:57.013Z,0.63
2022-09-27T03:23:50.279Z,0.57
2022-09-27T03:26:45.455Z,0.70
2022-09-27T03:29:39.136Z,0.50
2022-09-27T03:32:32.695Z,0.63
2022-09-27T03:35:26.240Z,0.70
2022-09-27T03:38:19.661Z,0.55
2022-09-27T03:41:13.172Z,0.90
2022-09-27T03:44:08.431Z,0.50
2022-09-27T03:47:02.226Z,0.50
2022-09-27T03:49:55.493Z,0.60
2022-09-27T03:52:49.298Z,0.65
2022-09-27T03:55:42.789Z,0.70
2022-09-27T03:58:36.287Z,0.47
2022-09-27T04:01:30.511Z,0.50
2022-09-27T04:04:24.803Z,0.70
2022-09-27T04:07:18.220Z,0.60
2022-09-27T04:10:11.508Z,0.60
2022-09-27T04:13:05.171Z,0.70
2022-09-27T04:15:58.376Z,0.50
2022-09-27T04:18:52.825Z,0.50
2022-09-27T04:21:46.309Z,0.50
2022-09-27T04:24:39.765Z,0.50
2022-09-27T04:27:33.156Z,0.60
2022-09-27T04:30:27.431Z,0.55
2022-09-27T04:33:20.896Z,0.50
2022-09-27T04:36:28.399Z,0.50
2022-09-27T04:39:21.284Z,0.38
2022-09-27T04:42:14.696Z,0.70
2022-09-27T04:45:09.043Z,0.50
2022-09-27T04:48:02.921Z,0.65
2022-09-27T04:51:02.180Z,0.50
2022-09-27T04:53:57.316Z,0.40
2022-09-27T04:56:50.347Z,0.40
2022-09-27T04:59:44.398Z,0.40
2022-09-27T05:02:37.380Z,0.40
2022-09-27T05:05:30.170Z,0.60
2022-09-27T05:08:23.543Z,0.70
2022-09-27T05:11:18.368Z,0.43
2022-09-27T05:14:10.855Z,0.40
2022-09-27T05:17:04.835Z,0.52
2022-09-27T05:19:58.346Z,0.57
2022-09-27T05:22:51.787Z,0.52
2022-09-27T05:25:45.415Z,0.40
2022-09-27T05:28:44.288Z,0.43
2022-09-27T05:31:37.070Z,0.40
2022-09-27T05:34:32.518Z,0.35
2022-09-27T05:37:26.291Z,0.50
2022-09-27T05:40:37.058Z,0.52
2022-09-27T05:43:32.972Z,0.40
2022-09-27T05:46:28.235Z,0.52
2022-09-27T05:49:21.111Z,0.50
2022-09-27T05:52:16.797Z,0.50
2022-09-27T05:55:11.368Z,0.60
2022-09-27T05:58:07.101Z,0.50
2022-09-27T06:01:00.219Z,0.40
2022-09-27T06:03:55.032Z,0.40
2022-09-27T06:06:48.889Z,0.57
2022-09-27T06:09:44.108Z,0.40
2022-09-27T06:12:37.700Z,0.47
2022-09-27T06:15:32.757Z,0.70
2022-09-27T06:18:26.827Z,0.52
2022-09-27T06:21:22.578Z,0.38
2022-09-27T06:24:16.287Z,0.50
2022-09-27T06:27:09.967Z,0.40
2022-09-27T06:30:03.168Z,0.40
2022-09-27T06:32:58.991Z,0.50
2022-09-27T06:35:52.239Z,0.52
2022-09-27T06:38:48.250Z,0.20
2022-09-27T06:41:41.217Z,0.50
2022-09-27T06:44:35.264Z,0.50
2022-09-27T06:47:29.816Z,0.52
2022-09-27T06:50:23.605Z,0.50
2022-09-27T06:53:18.297Z,0.40
2022-09-27T06:56:13.166Z,0.50
2022-09-27T06:59:23.630Z,0.50
2022-09-27T07:02:16.895Z,0.50
2022-09-27T07:05:10.769Z,0.60
2022-09-27T07:08:05.703Z,0.40
2022-09-27T07:11:04.973Z,0.43
2022-09-27T07:14:00.237Z,0.47
2022-09-27T07:16:53.145Z,0.40
2022-09-27T07:19:46.826Z,0.40
2022-09-27T07:22:42.564Z,0.70
2022-09-27T07:25:36.452Z,0.43
2022-09-27T07:28:29.537Z,0.60
2022-09-27T07:31:24.389Z,0.40
2022-09-27T07:34:18.858Z,0.80
2022-09-27T07:37:12.665Z,0.50
2022-09-27T07:40:08.659Z,0.50
2022-09-27T07:43:02.975Z,0.40
2022-09-27T07:45:57.872Z,0.60
2022-09-27T07:48:53.759Z,0.60
2022-09-27T07:51:47.224Z,0.50
2022-09-27T07:54:40.848Z,0.50
2022-09-27T07:57:34.479Z,0.60
2022-09-27T08:00:27.558Z,0.50
2022-09-27T08:03:20.273Z,0.57
2022-09-27T08:06:14.785Z,0.50
2022-09-27T08:09:09.635Z,0.60
2022-09-27T08:12:04.494Z,0.50
2022-09-27T08:15:01.175Z,0.60
2022-09-27T08:17:55.133Z,0.50
2022-09-27T08:20:48.173Z,0.45
2022-09-27T08:23:43.005Z,0.60
2022-09-27T08:26:36.140Z,0.40
2022-09-27T08:29:29.681Z,0.60
2022-09-27T08:32:23.742Z,0.43
2022-09-27T08:35:17.997Z,0.40
2022-09-27T08:38:12.474Z,0.47
2022-09-27T08:41:10.635Z,0.45
2022-09-27T08:44:11.996Z,0.52
2022-09-27T08:47:12.530Z,0.60
2022-09-27T08:50:18.916Z,0.55
2022-09-27T08:53:21.707Z,0.43
2022-09-27T08:56:21.172Z,0.40
2022-09-27T08:59:21.096Z,0.57
2022-09-27T09:02:19.924Z,0.60
2022-09-27T09:05:18.576Z,0.60
2022-09-27T09:08:28.296Z,0.65
2022-09-27T09:11:53.118Z,0.50
2022-09-27T09:15:01.433Z,0.40
2022-09-27T09:18:14.736Z,0.65
2022-09-27T09:21:21.353Z,0.60
2022-09-27T09:24:37.878Z,0.50
2022-09-27T09:27:42.203Z,0.40
2022-09-27T09:30:45.454Z,0.60
2022-09-27T09:33:41.615Z,0.60
2022-09-27T09:36:39.892Z,0.68
2022-09-27T09:39:40.014Z,0.40
2022-09-27T09:42:40.095Z,0.50
2022-09-27T09:45:37.306Z,0.60
2022-09-27T09:48:36.348Z,0.60
2022-09-27T09:51:35.308Z,0.50
2022-09-27T09:54:32.567Z,0.50
2022-09-27T09:57:30.904Z,0.30
2022-09-27T10:00:25.738Z,0.60
2022-09-27T10:03:19.580Z,0.50
2022-09-27T10:06:14.123Z,0.40
2022-09-27T10:09:07.815Z,0.60
2022-09-27T10:12:02.306Z,0.43
2022-09-27T10:14:56.588Z,0.40
2022-09-27T10:17:53.767Z,0.50
2022-09-27T10:20:51.832Z,0.40
2022-09-27T10:24:17.344Z,0.50
2022-09-27T10:27:11.198Z,0.50
2022-09-27T10:30:05.893Z,0.50
2022-09-27T10:33:05.782Z,0.32
2022-09-27T10:35:59.673Z,0.40
2022-09-27T10:38:54.650Z,0.60
2022-09-27T10:41:47.921Z,0.50
2022-09-27T10:44:41.855Z,0.40
2022-09-27T10:47:37.187Z,0.43
2022-09-27T10:50:52.981Z,0.50
2022-09-27T10:53:49.433Z,0.30
2022-09-27T10:56:43.122Z,0.50
2022-09-27T10:59:40.204Z,0.45
2022-09-27T11:02:36.439Z,0.43
2022-09-27T11:05:38.133Z,0.47
2022-09-27T11:08:33.462Z,0.40
2022-09-27T11:11:28.610Z,0.38
2022-09-27T11:14:23.832Z,0.40
2022-09-27T11:17:22.023Z,0.47
2022-09-27T11:20:23.506Z,0.50
2022-09-27T11:23:31.408Z,0.60
2022-09-27T11:26:46.044Z,0.60
2022-09-27T11:29:53.536Z,0.50
2022-09-27T11:33:20.252Z,0.40
2022-09-27T11:36:23.808Z,0.60
2022-09-27T11:39:27.048Z,0.50
2022-09-27T11:42:42.895Z,0.50
2022-09-27T11:46:20.830Z,0.60
2022-09-27T11:49:20.774Z,0.45
2022-09-27T11:52:34.237Z,0.55
2022-09-27T11:55:43.400Z,0.50
2022-09-27T11:58:48.965Z,0.50
2022-09-27T12:01:51.099Z,0.65
2022-09-27T12:04:57.514Z,0.40
2022-09-27T12:08:09.325Z,0.32
2022-09-27T12:11:13.163Z,0.52
2022-09-27T12:14:12.625Z,0.50
2022-09-27T12:17:11.670Z,0.80
2022-09-27T12:20:08.792Z,0.35
2022-09-27T12:23:05.100Z,0.57
2022-09-27T12:26:04.523Z,0.60
2022-09-27T12:29:03.316Z,0.50
2022-09-27T12:32:06.183Z,0.40
2022-09-27T12:35:04.539Z,0.43
2022-09-27T12:38:02.693Z,0.55
2022-09-27T12:40:59.376Z,0.50
2022-09-27T12:43:52.867Z,0.70
2022-09-27T12:46:57.913Z,0.57
2022-09-27T12:50:02.191Z,0.45
2022-09-27T12:53:05.248Z,0.50
2022-09-27T12:56:16.124Z,0.40
2022-09-27T12:59:21.708Z,0.50
2022-09-27T13:03:14.249Z,0.50
2022-09-27T13:06:29.541Z,0.60
2022-09-27T13:10:02.473Z,0.40
2022-09-27T13:12:56.776Z,0.60
2022-09-27T13:15:50.893Z,0.50
2022-09-27T13:18:53.920Z,0.40
2022-09-27T13:22:01.078Z,0.40
2022-09-27T13:24:54.778Z,0.50
2022-09-27T13:27:47.928Z,0.40
2022-09-27T13:30:45.958Z,0.30
2022-09-27T13:33:46.287Z,0.40
2022-09-27T13:36:39.490Z,0.50
2022-09-27T13:39:34.069Z,0.40
2022-09-27T13:42:34.065Z,0.30
2022-09-27T13:45:33.714Z,0.68
2022-09-27T13:48:31.663Z,0.40
2022-09-27T13:51:36.765Z,0.40
2022-09-27T13:54:53.352Z,0.40
2022-09-27T13:57:52.513Z,0.50
2022-09-27T14:00:48.708Z,0.52
2022-09-27T14:04:12.926Z,0.38
2022-09-27T14:07:10.045Z,0.50
2022-09-27T14:10:06.061Z,0.55
2022-09-27T14:13:02.443Z,0.50
2022-09-27T14:15:57.056Z,0.60
2022-09-27T14:18:57.542Z,0.93
2022-09-27T14:21:50.656Z,0.52
2022-09-27T14:24:49.331Z,0.60
2022-09-27T14:27:44.036Z,0.52
2022-09-27T14:30:37.728Z,0.50
2022-09-27T14:33:33.617Z,0.60
2022-09-27T14:36:50.372Z,0.60
2022-09-27T14:39:43.957Z,0.85
2022-09-27T14:42:38.367Z,0.68
2022-09-27T14:45:37.493Z,0.60
2022-09-27T14:48:32.242Z,0.60
2022-09-27T14:51:29.007Z,0.70
2022-09-27T14:54:26.080Z,0.60
2022-09-27T14:57:19.843Z,0.85
2022-09-27T15:00:19.780Z,0.77
2022-09-27T15:03:24.941Z,0.70
2022-09-27T15:06:19.128Z,0.75
2022-09-27T15:09:14.938Z,0.70
2022-09-27T15:12:08.575Z,0.60
2022-09-27T15:15:02.000Z,0.90
2022-09-27T15:17:55.781Z,0.63
2022-09-27T15:20:55.451Z,0.73
2022-09-27T15:23:48.416Z,0.70
2022-09-27T15:26:47.355Z,0.70
2022-09-27T15:29:40.893Z,0.60
2022-09-27T15:32:33.883Z,0.70
2022-09-27T15:35:30.001Z,0.63
2022-09-27T15:38:28.818Z,0.80
2022-09-27T15:41:22.010Z,0.40
2022-09-27T15:44:40.932Z,0.70
2022-09-27T15:47:49.603Z,0.80
2022-09-27T15:50:43.284Z,0.70
2022-09-27T15:53:45.947Z,0.50
2022-09-27T15:56:40.078Z,0.57
2022-09-27T15:59:35.537Z,0.70
2022-09-27T16:02:28.809Z,0.52
2022-09-27T16:05:23.236Z,0.68
2022-09-27T16:08:16.399Z,0.63
2022-09-27T16:11:15.368Z,0.43
2022-09-27T16:14:08.957Z,0.60
2022-09-27T16:17:01.940Z,0.52
2022-09-27T16:19:54.548Z,0.50
2022-09-27T16:22:47.981Z,0.60
2022-09-27T16:25:41.377Z,0.60
2022-09-27T16:28:36.228Z,0.80
2022-09-27T16:31:30.140Z,0.60
2022-09-27T16:34:23.975Z,0.77
2022-09-27T16:37:17.108Z,0.68
2022-09-27T16:40:13.199Z,0.65
2022-09-27T16:43:08.050Z,0.68
2022-09-27T16:46:09.266Z,0.65
2022-09-27T16:49:03.429Z,0.73
2022-09-27T16:52:02.129Z,0.65
2022-09-27T16:54:55.828Z,0.65
2022-09-27T16:57:48.790Z,0.68
2022-09-27T17:00:41.988Z,0.73
2022-09-27T17:03:37.490Z,0.93
2022-09-27T17:06:31.773Z,0.70
2022-09-27T17:09:24.674Z,0.40
2022-09-27T17:12:17.473Z,0.50
2022-09-27T17:15:10.802Z,0.60
2022-09-27T17:18:03.856Z,0.80
2022-09-27T17:21:03.223Z,0.88
2022-09-27T17:23:58.216Z,1.02
2022-09-27T17:26:52.273Z,0.60
2022-09-27T17:29:46.172Z,0.70
2022-09-27T17:32:40.115Z,0.75
2022-09-27T17:35:33.938Z,0.60
2022-09-27T17:38:28.073Z,0.75
2022-09-27T17:41:23.592Z,0.77
2022-09-27T17:44:19.100Z,0.70
2022-09-27T17:47:26.711Z,0.68
2022-09-27T17:50:25.720Z,0.73
2022-09-27T17:53:18.796Z,0.60
2022-09-27T17:56:14.518Z,0.80
2022-09-27T17:59:09.615Z,0.68
2022-09-27T18:02:02.966Z,0.90
2022-09-27T18:04:56.389Z,0.90
2022-09-27T18:07:49.971Z,0.75
2022-09-27T18:10:42.607Z,0.80
2022-09-27T18:13:40.528Z,0.70
2022-09-27T18:16:36.829Z,0.70
2022-09-27T18:19:29.692Z,0.68
2022-09-27T18:22:22.455Z,1.00
2022-09-27T18:25:16.130Z,0.70
2022-09-27T18:28:09.964Z,0.80
2022-09-27T18:31:06.658Z,0.80
2022-09-27T18:33:59.952Z,0.80
2022-09-27T18:36:52.373Z,0.80
2022-09-27T18:39:45.831Z,0.70
2022-09-27T18:42:38.593Z,0.90
2022-09-27T18:45:31.995Z,0.80
2022-09-27T18:48:25.906Z,0.80
2022-09-27T18:51:20.765Z,0.82
2022-09-27T18:54:16.391Z,0.82
2022-09-27T18:57:09.715Z,0.70
2022-09-27T19:00:04.436Z,0.90
2022-09-27T19:02:58.693Z,1.00
2022-09-27T19:05:56.640Z,0.70
2022-09-27T19:08:55.067Z,0.80
2022-09-27T19:11:48.084Z,0.95
2022-09-27T19:14:41.312Z,0.95
2022-09-27T19:17:34.917Z,0.75
2022-09-27T19:20:27.621Z,0.90
2022-09-27T19:23:23.525Z,0.77
2022-09-27T19:26:19.218Z,0.90
2022-09-27T19:29:14.716Z,0.98
2022-09-27T19:32:07.891Z,0.73
2022-09-27T19:35:00.713Z,0.93
2022-09-27T19:37:53.804Z,0.80
2022-09-27T19:40:55.390Z,0.80
2022-09-27T19:43:52.915Z,0.60
2022-09-27T19:46:46.479Z,1.00
2022-09-27T19:49:39.852Z,0.70
2022-09-27T19:52:34.281Z,0.80
2022-09-27T19:55:27.843Z,0.70
2022-09-27T19:58:22.146Z,1.00
2022-09-27T20:01:19.043Z,0.80
2022-09-27T20:04:13.744Z,0.98
2022-09-27T20:07:06.814Z,0.70
2022-09-27T20:09:59.509Z,0.85
2022-09-27T20:12:53.821Z,0.90
2022-09-27T20:15:48.548Z,0.73
2022-09-27T20:18:43.294Z,1.00
2022-09-27T20:21:36.796Z,1.00
2022-09-27T20:24:30.044Z,0.73
2022-09-27T20:27:22.667Z,1.00
2022-09-27T20:30:16.377Z,0.75
2022-09-27T20:33:28.374Z,0.90
2022-09-27T20:36:23.641Z,1.10
2022-09-27T20:39:17.521Z,1.10
2022-09-27T20:42:10.806Z,1.10
2022-09-27T20:45:04.825Z,0.93
2022-09-27T20:47:57.822Z,1.00
2022-09-27T20:50:58.600Z,0.90
2022-09-27T20:53:54.439Z,0.77
2022-09-27T20:56:49.161Z,0.90
2022-09-27T20:59:41.801Z,0.80
2022-09-27T21:02:35.061Z,0.80
2022-09-27T21:05:27.883Z,1.00
2022-09-27T21:08:22.206Z,1.00
2022-09-27T21:11:16.447Z,0.85
2022-09-27T21:14:10.236Z,0.82
2022-09-27T21:17:03.672Z,1.00
2022-09-27T21:19:57.096Z,0.90
2022-09-27T21:22:49.892Z,0.82
2022-09-27T21:25:44.327Z,1.08
2022-09-27T21:28:39.765Z,0.90
2022-09-27T21:31:33.924Z,0.90
2022-09-27T21:34:26.594Z,0.70
2022-09-27T21:37:19.751Z,0.73
2022-09-27T21:40:13.033Z,0.95
2022-09-27T21:43:07.607Z,0.90
2022-09-27T21:46:05.950Z,0.95
2022-09-27T21:49:01.772Z,0.93
2022-09-27T21:51:54.761Z,1.10
2022-09-27T21:54:48.201Z,0.88
2022-09-27T21:57:40.860Z,0.90
2022-09-27T22:00:35.441Z,0.90
2022-09-27T22:03:28.620Z,0.88
2022-09-27T22:06:23.446Z,0.85
2022-09-27T22:09:18.083Z,0.90
2022-09-27T22:12:10.981Z,0.60
2022-09-27T22:15:04.220Z,0.98
2022-09-27T22:17:58.020Z,0.95
2022-09-27T22:20:50.925Z,0.98
2022-09-27T22:23:45.288Z,0.90
2022-09-27T22:26:40.466Z,0.75
2022-09-27T22:29:34.171Z,0.80
2022-09-27T22:32:26.921Z,1.02
2022-09-27T22:35:21.749Z,0.90
2022-09-27T22:38:15.602Z,1.00
2022-09-27T22:41:09.260Z,1.00
2022-09-27T22:44:02.532Z,0.70
2022-09-27T22:46:56.561Z,1.13
2022-09-27T22:49:50.513Z,0.82
2022-09-27T22:52:45.439Z,1.00
2022-09-27T22:55:39.178Z,0.70
2022-09-27T22:58:32.335Z,0.90
2022-09-27T23:01:26.376Z,0.77
2022-09-27T23:04:20.147Z,0.95
2022-09-27T23:07:13.081Z,1.02
2022-09-27T23:10:08.237Z,0.85
2022-09-27T23:13:00.631Z,1.02
2022-09-27T23:15:54.006Z,0.70
2022-09-27T23:18:47.549Z,0.80
2022-09-27T23:21:41.165Z,0.90
2022-09-27T23:24:34.299Z,0.90
2022-09-27T23:27:45.184Z,0.70
2022-09-27T23:30:38.076Z,0.98
2022-09-27T23:33:31.133Z,0.82
2022-09-27T23:36:27.525Z,0.80
2022-09-27T23:39:20.935Z,0.90
2022-09-27T23:42:14.555Z,0.80
2022-09-27T23:45:11.461Z,0.98
2022-09-27T23:48:05.513Z,0.80
2022-09-27T23:50:59.344Z,0.85
2022-09-27T23:53:52.094Z,1.05
2022-09-27T23:56:45.048Z,0.80
2022-09-27T23:59:38.500Z,0.70
